createdAt,value
2023-03-29T00:00:22.506Z,970.81
2023-03-29T00:01:36.036Z,970.78
2023-03-29T00:02:22.385Z,970.83
2023-03-29T00:03:22.554Z,970.83
2023-03-29T00:04:22.361Z,970.78
2023-03-29T00:05:22.477Z,970.79
2023-03-29T00:06:22.357Z,970.73
2023-03-29T00:07:22.527Z,970.72
2023-03-29T00:08:22.304Z,970.75
2023-03-29T00:09:22.435Z,970.68
2023-03-29T00:10:22.258Z,970.71
2023-03-29T00:11:22.436Z,970.72
2023-03-29T00:12:22.234Z,970.65
2023-03-29T00:13:22.389Z,970.62
2023-03-29T00:14:22.206Z,970.61
2023-03-29T00:15:22.376Z,970.63
2023-03-29T00:16:22.247Z,970.64
2023-03-29T00:17:22.337Z,970.64
2023-03-29T00:18:22.192Z,970.66
2023-03-29T00:19:22.413Z,970.65
2023-03-29T00:20:22.121Z,970.62
2023-03-29T00:21:22.258Z,970.70
2023-03-29T00:22:22.128Z,970.72
2023-03-29T00:23:22.263Z,970.72
2023-03-29T00:24:22.136Z,970.70
2023-03-29T00:25:22.244Z,970.72
2023-03-29T00:26:22.071Z,970.71
2023-03-29T00:27:22.306Z,970.71
2023-03-29T00:28:22.053Z,970.69
2023-03-29T00:29:22.180Z,970.68
2023-03-29T00:30:22.037Z,970.68
2023-03-29T00:31:22.179Z,970.63
2023-03-29T00:32:21.981Z,970.63
2023-03-29T00:33:22.175Z,970.64
2023-03-29T00:34:21.997Z,970.68
2023-03-29T00:35:22.141Z,970.67
2023-03-29T00:36:22.152Z,970.67
2023-03-29T00:37:21.952Z,970.66
2023-03-29T00:38:22.025Z,970.65
2023-03-29T00:39:21.918Z,970.66
2023-03-29T00:40:22.229Z,970.66
2023-03-29T00:41:21.905Z,970.64
2023-03-29T00:42:22.068Z,970.60
2023-03-29T00:43:21.913Z,970.60
2023-03-29T00:44:22.115Z,970.60
2023-03-29T00:45:21.835Z,970.47
2023-03-29T00:46:21.925Z,970.42
2023-03-29T00:47:21.810Z,970.44
2023-03-29T00:48:21.902Z,970.47
2023-03-29T00:49:21.779Z,970.47
2023-03-29T00:50:21.853Z,970.38
2023-03-29T00:51:21.781Z,970.39
2023-03-29T00:52:21.816Z,970.36
2023-03-29T00:53:21.731Z,970.34
2023-03-29T00:54:21.825Z,970.31
2023-03-29T00:55:21.751Z,970.33
2023-03-29T00:56:21.889Z,970.31
2023-03-29T00:57:22.117Z,970.34
2023-03-29T00:58:21.657Z,970.38
2023-03-29T00:59:21.890Z,970.42
2023-03-29T01:00:21.654Z,970.40
2023-03-29T01:01:21.763Z,970.37
2023-03-29T01:02:21.670Z,970.31
2023-03-29T01:03:21.707Z,970.27
2023-03-29T01:04:21.683Z,970.30
2023-03-29T01:05:21.599Z,970.31
2023-03-29T01:06:21.754Z,970.31
2023-03-29T01:07:21.646Z,970.32
2023-03-29T01:08:21.517Z,970.31
2023-03-29T01:09:21.641Z,970.38
2023-03-29T01:10:21.482Z,970.31
2023-03-29T01:11:27.665Z,970.35
2023-03-29T01:12:21.554Z,970.30
2023-03-29T01:13:21.494Z,970.35
2023-03-29T01:14:21.656Z,970.29
2023-03-29T01:15:21.448Z,970.28
2023-03-29T01:16:21.691Z,970.18
2023-03-29T01:17:21.454Z,970.28
2023-03-29T01:18:21.487Z,970.30
2023-03-29T01:19:21.466Z,970.18
2023-03-29T01:20:21.494Z,970.18
2023-03-29T01:21:21.364Z,970.20
2023-03-29T01:22:21.554Z,970.27
2023-03-29T01:23:21.367Z,970.32
2023-03-29T01:24:21.527Z,970.28
2023-03-29T01:25:21.318Z,970.35
2023-03-29T01:26:21.445Z,970.37
2023-03-29T01:27:21.289Z,970.38
2023-03-29T01:28:21.394Z,970.35
2023-03-29T01:29:21.254Z,970.33
2023-03-29T01:30:21.366Z,970.31
2023-03-29T01:31:21.287Z,970.27
2023-03-29T01:32:21.445Z,970.24
2023-03-29T01:33:21.394Z,970.24
2023-03-29T01:34:21.198Z,970.24
2023-03-29T01:35:21.419Z,970.16
2023-03-29T01:36:21.148Z,970.11
2023-03-29T01:37:21.375Z,970.14
2023-03-29T01:38:21.250Z,970.15
2023-03-29T01:39:21.174Z,970.19
2023-03-29T01:40:21.321Z,970.32
2023-03-29T01:41:21.120Z,970.32
2023-03-29T01:42:21.262Z,970.28
2023-03-29T01:43:21.141Z,970.24
2023-03-29T01:44:21.252Z,970.24
2023-03-29T01:45:21.073Z,970.21
2023-03-29T01:46:21.086Z,970.16
2023-03-29T01:47:21.055Z,970.12
2023-03-29T01:48:21.110Z,970.18
2023-03-29T01:49:21.026Z,970.11
2023-03-29T01:50:21.192Z,970.05
2023-03-29T01:51:25.718Z,970.04
2023-03-29T01:52:20.949Z,969.99
2023-03-29T01:53:21.087Z,969.91
2023-03-29T01:54:21.036Z,969.96
2023-03-29T01:55:21.132Z,970.04
2023-03-29T01:56:20.878Z,970.04
2023-03-29T01:57:21.175Z,970.04
2023-03-29T01:58:20.922Z,970.00
2023-03-29T01:59:20.941Z,969.95
2023-03-29T02:00:21.024Z,969.93
2023-03-29T02:01:20.969Z,969.95
2023-03-29T02:02:20.862Z,970.00
2023-03-29T02:03:20.929Z,970.01
2023-03-29T02:04:20.964Z,969.95
2023-03-29T02:05:20.777Z,969.98
2023-03-29T02:06:20.864Z,969.89
2023-03-29T02:07:20.752Z,969.91
2023-03-29T02:08:20.930Z,969.92
2023-03-29T02:09:20.917Z,969.91
2023-03-29T02:10:20.776Z,969.90
2023-03-29T02:11:20.962Z,969.96
2023-03-29T02:12:20.728Z,969.96
2023-03-29T02:13:20.843Z,969.96
2023-03-29T02:14:20.719Z,969.97
2023-03-29T02:15:20.852Z,969.93
2023-03-29T02:16:20.738Z,969.92
2023-03-29T02:17:20.766Z,969.94
2023-03-29T02:18:20.637Z,969.91
2023-03-29T02:19:20.775Z,969.91
2023-03-29T02:20:20.662Z,969.95
2023-03-29T02:21:20.733Z,969.84
2023-03-29T02:22:20.613Z,969.80
2023-03-29T02:23:20.716Z,969.80
2023-03-29T02:24:20.574Z,969.83
2023-03-29T02:25:20.605Z,969.81
2023-03-29T02:26:20.567Z,969.72
2023-03-29T02:27:20.535Z,969.78
2023-03-29T02:28:20.561Z,969.72
2023-03-29T02:29:20.543Z,969.69
2023-03-29T02:30:20.589Z,969.66
2023-03-29T02:31:20.612Z,969.67
2023-03-29T02:32:20.601Z,969.69
2023-03-29T02:33:20.417Z,969.72
2023-03-29T02:34:20.522Z,969.65
2023-03-29T02:35:20.599Z,969.64
2023-03-29T02:36:20.414Z,969.68
2023-03-29T02:37:20.425Z,969.67
2023-03-29T02:38:20.461Z,969.59
2023-03-29T02:39:20.510Z,969.51
2023-03-29T02:40:20.433Z,969.48
2023-03-29T02:41:20.344Z,969.41
2023-03-29T02:42:20.577Z,969.38
2023-03-29T02:43:20.283Z,969.40
2023-03-29T02:44:20.406Z,969.41
2023-03-29T02:45:20.283Z,969.41
2023-03-29T02:46:20.563Z,969.36
2023-03-29T02:47:20.254Z,969.31
2023-03-29T02:48:20.489Z,969.27
2023-03-29T02:49:20.249Z,969.21
2023-03-29T02:50:20.409Z,969.23
2023-03-29T02:51:20.456Z,969.22
2023-03-29T02:52:20.411Z,969.21
2023-03-29T02:53:20.189Z,969.23
2023-03-29T02:54:20.376Z,969.24
2023-03-29T02:55:20.148Z,969.22
2023-03-29T02:56:20.240Z,969.19
2023-03-29T02:57:20.115Z,969.20
2023-03-29T02:58:20.299Z,969.25
2023-03-29T02:59:20.104Z,969.17
2023-03-29T03:00:20.329Z,969.17
2023-03-29T03:01:20.093Z,969.17
2023-03-29T03:02:20.223Z,969.13
2023-03-29T03:03:20.149Z,969.11
2023-03-29T03:04:20.253Z,969.09
2023-03-29T03:05:20.013Z,969.06
2023-03-29T03:06:20.100Z,969.12
2023-03-29T03:07:19.989Z,969.09
2023-03-29T03:08:20.142Z,969.05
2023-03-29T03:09:20.006Z,969.04
2023-03-29T03:10:20.076Z,969.01
2023-03-29T03:11:19.953Z,969.00
2023-03-29T03:12:20.162Z,969.01
2023-03-29T03:13:19.918Z,968.97
2023-03-29T03:14:20.064Z,968.97
2023-03-29T03:15:19.911Z,969.01
2023-03-29T03:16:20.193Z,969.11
2023-03-29T03:17:19.866Z,969.07
2023-03-29T03:18:19.991Z,969.09
2023-03-29T03:19:19.849Z,969.14
2023-03-29T03:20:19.937Z,969.05
2023-03-29T03:21:19.812Z,969.12
2023-03-29T03:22:20.024Z,969.09
2023-03-29T03:23:19.783Z,969.13
2023-03-29T03:24:19.930Z,969.11
2023-03-29T03:25:19.764Z,969.14
2023-03-29T03:26:19.986Z,969.08
2023-03-29T03:27:19.731Z,969.16
2023-03-29T03:28:19.840Z,969.19
2023-03-29T03:29:19.715Z,969.22
2023-03-29T03:30:19.856Z,969.20
2023-03-29T03:31:19.770Z,969.19
2023-03-29T03:32:19.810Z,969.18
2023-03-29T03:33:19.674Z,969.19
2023-03-29T03:34:19.779Z,969.20
2023-03-29T03:35:19.622Z,969.16
2023-03-29T03:36:19.792Z,969.23
2023-03-29T03:37:19.642Z,969.18
2023-03-29T03:38:19.705Z,969.16
2023-03-29T03:39:19.580Z,969.12
2023-03-29T03:40:19.856Z,969.11
2023-03-29T03:41:19.549Z,969.03
2023-03-29T03:42:19.673Z,969.05
2023-03-29T03:43:20.062Z,969.03
2023-03-29T03:44:19.659Z,968.99
2023-03-29T03:45:19.510Z,969.01
2023-03-29T03:46:19.737Z,969.00
2023-03-29T03:47:19.504Z,969.01
2023-03-29T03:48:19.624Z,969.02
2023-03-29T03:49:19.448Z,968.97
2023-03-29T03:50:19.586Z,968.94
2023-03-29T03:51:19.428Z,968.96
2023-03-29T03:52:19.500Z,968.94
2023-03-29T03:53:19.533Z,968.93
2023-03-29T03:54:19.423Z,968.92
2023-03-29T03:55:19.494Z,968.91
2023-03-29T03:56:19.382Z,968.91
2023-03-29T03:57:19.547Z,968.88
2023-03-29T03:58:19.557Z,968.83
2023-03-29T03:59:19.349Z,968.86
2023-03-29T04:00:19.684Z,968.84
2023-03-29T04:01:19.326Z,968.79
2023-03-29T04:02:19.400Z,968.79
2023-03-29T04:03:19.429Z,968.79
2023-03-29T04:04:19.508Z,968.82
2023-03-29T04:05:19.251Z,968.81
2023-03-29T04:06:19.397Z,968.82
2023-03-29T04:07:19.228Z,968.81
2023-03-29T04:08:19.410Z,968.81
2023-03-29T04:09:19.236Z,968.82
2023-03-29T04:10:19.414Z,968.82
2023-03-29T04:11:19.178Z,968.84
2023-03-29T04:12:19.226Z,968.86
2023-03-29T04:13:19.134Z,968.86
2023-03-29T04:14:19.346Z,968.86
2023-03-29T04:15:19.161Z,968.85
2023-03-29T04:16:19.296Z,968.89
2023-03-29T04:17:19.074Z,968.93
2023-03-29T04:18:19.228Z,968.97
2023-03-29T04:19:19.261Z,969.00
2023-03-29T04:20:19.094Z,969.00
2023-03-29T04:21:21.249Z,969.04
2023-03-29T04:22:19.045Z,969.00
2023-03-29T04:23:19.094Z,969.00
2023-03-29T04:24:19.114Z,969.00
2023-03-29T04:25:19.041Z,969.00
2023-03-29T04:26:19.121Z,969.01
2023-03-29T04:27:18.951Z,969.04
2023-03-29T04:28:19.149Z,968.96
2023-03-29T04:29:19.160Z,969.00
2023-03-29T04:30:18.999Z,969.01
2023-03-29T04:31:19.219Z,969.07
2023-03-29T04:32:18.954Z,969.06
2023-03-29T04:33:19.081Z,969.07
2023-03-29T04:34:18.898Z,969.07
2023-03-29T04:35:19.079Z,969.09
2023-03-29T04:36:18.914Z,969.09
2023-03-29T04:37:19.002Z,969.11
2023-03-29T04:38:19.224Z,969.06
2023-03-29T04:39:18.908Z,969.00
2023-03-29T04:40:18.833Z,968.96
2023-03-29T04:41:19.615Z,968.95
2023-03-29T04:42:18.798Z,969.00
2023-03-29T04:43:19.028Z,968.98
2023-03-29T04:44:18.830Z,968.98
2023-03-29T04:45:19.012Z,968.99
2023-03-29T04:46:18.846Z,968.95
2023-03-29T04:47:18.951Z,968.99
2023-03-29T04:48:18.724Z,969.02
2023-03-29T04:49:18.781Z,968.97
2023-03-29T04:50:18.702Z,968.99
2023-03-29T04:51:18.799Z,968.99
2023-03-29T04:52:18.730Z,968.99
2023-03-29T04:53:18.795Z,968.97
2023-03-29T04:54:18.658Z,968.95
2023-03-29T04:55:18.819Z,968.99
2023-03-29T04:56:18.697Z,968.99
2023-03-29T04:57:18.872Z,968.99
2023-03-29T04:58:21.487Z,968.98
2023-03-29T04:59:18.690Z,969.02
2023-03-29T05:00:18.640Z,969.02
2023-03-29T05:01:18.661Z,968.99
2023-03-29T05:02:19.103Z,969.03
2023-03-29T05:03:18.719Z,969.08
2023-03-29T05:04:18.635Z,969.10
2023-03-29T05:05:18.697Z,969.06
2023-03-29T05:06:19.876Z,969.06
2023-03-29T05:07:18.935Z,969.05
2023-03-29T05:08:18.655Z,969.05
2023-03-29T05:09:18.657Z,969.07
2023-03-29T05:10:18.489Z,969.07
2023-03-29T05:11:19.446Z,969.05
2023-03-29T05:12:18.477Z,969.04
2023-03-29T05:13:18.547Z,969.06
2023-03-29T05:14:18.396Z,969.05
2023-03-29T05:15:18.711Z,969.01
2023-03-29T05:16:19.152Z,969.03
2023-03-29T05:17:18.366Z,969.08
2023-03-29T05:18:18.512Z,969.05
2023-03-29T05:19:18.318Z,969.06
2023-03-29T05:20:18.583Z,969.07
2023-03-29T05:21:18.489Z,969.04
2023-03-29T05:22:18.278Z,969.06
2023-03-29T05:23:18.518Z,969.03
2023-03-29T05:24:18.269Z,969.06
2023-03-29T05:25:18.346Z,969.05
2023-03-29T05:26:18.247Z,969.06
2023-03-29T05:27:18.368Z,969.02
2023-03-29T05:28:18.236Z,969.03
2023-03-29T05:29:18.336Z,969.09
2023-03-29T05:30:18.218Z,969.05
2023-03-29T05:31:18.331Z,969.06
2023-03-29T05:32:18.163Z,969.08
2023-03-29T05:33:18.247Z,969.11
2023-03-29T05:34:18.146Z,969.08
2023-03-29T05:35:18.304Z,969.11
2023-03-29T05:36:18.204Z,969.11
2023-03-29T05:37:18.187Z,969.13
2023-03-29T05:38:18.095Z,969.12
2023-03-29T05:39:18.303Z,969.12
2023-03-29T05:40:18.091Z,969.11
2023-03-29T05:41:18.221Z,969.10
2023-03-29T05:42:18.187Z,969.10
2023-03-29T05:43:17.995Z,969.10
2023-03-29T05:44:18.137Z,969.07
2023-03-29T05:45:17.961Z,969.05
2023-03-29T05:46:18.207Z,969.07
2023-03-29T05:47:18.141Z,969.07
2023-03-29T05:48:17.985Z,969.10
2023-03-29T05:49:18.048Z,969.13
2023-03-29T05:50:17.914Z,969.13
2023-03-29T05:51:18.068Z,969.11
2023-03-29T05:52:18.088Z,969.15
2023-03-29T05:53:17.861Z,969.16
2023-03-29T05:54:18.015Z,969.17
2023-03-29T05:55:17.851Z,969.23
2023-03-29T05:56:18.033Z,969.25
2023-03-29T05:57:17.850Z,969.22
2023-03-29T05:58:18.062Z,969.26
2023-03-29T05:59:17.857Z,969.21
2023-03-29T06:00:17.960Z,969.24
2023-03-29T06:01:18.128Z,969.23
2023-03-29T06:02:18.224Z,969.17
2023-03-29T06:03:21.521Z,969.16
2023-03-29T06:04:17.809Z,969.18
2023-03-29T06:05:18.219Z,969.20
2023-03-29T06:06:17.864Z,969.21
2023-03-29T06:07:17.873Z,969.20
2023-03-29T06:08:17.779Z,969.21
2023-03-29T06:09:17.802Z,969.24
2023-03-29T06:10:17.697Z,969.25
2023-03-29T06:11:17.770Z,969.25
2023-03-29T06:12:17.645Z,969.25
2023-03-29T06:13:17.734Z,969.28
2023-03-29T06:14:17.623Z,969.26
2023-03-29T06:15:17.747Z,969.28
2023-03-29T06:16:17.600Z,969.24
2023-03-29T06:17:17.745Z,969.28
2023-03-29T06:18:17.537Z,969.29
2023-03-29T06:19:17.717Z,969.37
2023-03-29T06:20:17.528Z,969.38
2023-03-29T06:21:17.729Z,969.41
2023-03-29T06:22:17.540Z,969.39
2023-03-29T06:23:17.699Z,969.39
2023-03-29T06:24:17.549Z,969.35
2023-03-29T06:25:17.677Z,969.34
2023-03-29T06:26:17.450Z,969.33
2023-03-29T06:27:17.727Z,969.35
2023-03-29T06:28:17.431Z,969.35
2023-03-29T06:29:17.607Z,969.36
2023-03-29T06:30:17.393Z,969.36
2023-03-29T06:31:17.574Z,969.36
2023-03-29T06:32:17.398Z,969.37
2023-03-29T06:33:17.558Z,969.35
2023-03-29T06:34:17.505Z,969.33
2023-03-29T06:35:17.362Z,969.33
2023-03-29T06:36:17.497Z,969.31
2023-03-29T06:37:17.338Z,969.33
2023-03-29T06:38:17.479Z,969.32
2023-03-29T06:39:17.501Z,969.29
2023-03-29T06:40:17.279Z,969.31
2023-03-29T06:41:17.439Z,969.30
2023-03-29T06:42:21.691Z,969.32
2023-03-29T06:43:17.245Z,969.29
2023-03-29T06:44:17.398Z,969.33
2023-03-29T06:45:17.255Z,969.39
2023-03-29T06:46:17.367Z,969.31
2023-03-29T06:47:17.221Z,969.31
2023-03-29T06:48:17.347Z,969.28
2023-03-29T06:49:17.341Z,969.28
2023-03-29T06:50:17.314Z,969.27
2023-03-29T06:51:17.172Z,969.28
2023-03-29T06:52:17.281Z,969.31
2023-03-29T06:53:17.115Z,969.33
2023-03-29T06:54:17.192Z,969.32
2023-03-29T06:55:17.142Z,969.30
2023-03-29T06:56:17.261Z,969.32
2023-03-29T06:57:17.104Z,969.31
2023-03-29T06:58:17.226Z,969.31
2023-03-29T06:59:17.080Z,969.27
2023-03-29T07:00:17.342Z,969.37
2023-03-29T07:01:17.024Z,969.31
2023-03-29T07:02:17.206Z,969.27
2023-03-29T07:03:17.048Z,969.27
2023-03-29T07:04:17.227Z,969.28
2023-03-29T07:05:17.288Z,969.32
2023-03-29T07:06:17.079Z,969.31
2023-03-29T07:07:17.165Z,969.32
2023-03-29T07:08:16.937Z,969.28
2023-03-29T07:09:19.335Z,969.33
2023-03-29T07:10:16.892Z,969.32
2023-03-29T07:11:17.136Z,969.25
2023-03-29T07:12:16.879Z,969.27
2023-03-29T07:13:17.141Z,969.27
2023-03-29T07:14:16.848Z,969.31
2023-03-29T07:15:16.948Z,969.31
2023-03-29T07:16:16.844Z,969.29
2023-03-29T07:17:17.016Z,969.25
2023-03-29T07:18:16.769Z,969.25
2023-03-29T07:19:16.966Z,969.24
2023-03-29T07:20:16.765Z,969.26
2023-03-29T07:21:16.880Z,969.28
2023-03-29T07:22:16.754Z,969.29
2023-03-29T07:23:16.877Z,969.27
2023-03-29T07:24:16.746Z,969.28
2023-03-29T07:25:16.915Z,969.28
2023-03-29T07:26:29.037Z,969.33
2023-03-29T07:27:16.721Z,969.33
2023-03-29T07:28:16.806Z,969.35
2023-03-29T07:29:16.699Z,969.34
2023-03-29T07:30:16.885Z,969.31
2023-03-29T07:31:17.187Z,969.31
2023-03-29T07:32:16.676Z,969.36
2023-03-29T07:33:16.969Z,969.38
2023-03-29T07:34:16.566Z,969.36
2023-03-29T07:35:16.717Z,969.42
2023-03-29T07:36:16.733Z,969.39
2023-03-29T07:37:16.638Z,969.44
2023-03-29T07:38:16.691Z,969.51
2023-03-29T07:39:16.549Z,969.47
2023-03-29T07:40:16.656Z,969.46
2023-03-29T07:41:16.500Z,969.50
2023-03-29T07:42:16.615Z,969.50
2023-03-29T07:43:16.513Z,969.55
2023-03-29T07:44:16.618Z,969.51
2023-03-29T07:45:16.474Z,969.52
2023-03-29T07:46:16.583Z,969.53
2023-03-29T07:47:16.709Z,969.54
2023-03-29T07:48:16.766Z,969.54
2023-03-29T07:49:16.517Z,969.56
2023-03-29T07:50:16.506Z,969.57
2023-03-29T07:51:16.368Z,969.60
2023-03-29T07:52:16.483Z,969.63
2023-03-29T07:53:16.337Z,969.63
2023-03-29T07:54:16.480Z,969.64
2023-03-29T07:55:16.394Z,969.68
2023-03-29T07:56:16.505Z,969.68
2023-03-29T07:57:16.530Z,969.71
2023-03-29T07:58:16.264Z,969.69
2023-03-29T07:59:16.560Z,969.69
2023-03-29T08:00:17.086Z,969.69
2023-03-29T08:01:19.317Z,969.67
2023-03-29T08:02:16.555Z,969.68
2023-03-29T08:03:16.441Z,969.72
2023-03-29T08:04:16.404Z,969.69
2023-03-29T08:05:23.238Z,969.69
2023-03-29T08:06:16.306Z,969.71
2023-03-29T08:07:18.808Z,969.72
2023-03-29T08:08:16.158Z,969.77
2023-03-29T08:09:16.293Z,969.72
2023-03-29T08:10:16.190Z,969.74
2023-03-29T08:11:16.518Z,969.72
2023-03-29T08:12:16.108Z,969.72
2023-03-29T08:13:17.227Z,969.73
2023-03-29T08:14:16.403Z,969.75
2023-03-29T08:15:16.488Z,969.76
2023-03-29T08:16:16.398Z,969.74
2023-03-29T08:17:17.110Z,969.77
2023-03-29T08:18:16.489Z,969.76
2023-03-29T08:19:16.253Z,969.78
2023-03-29T08:20:16.182Z,969.78
2023-03-29T08:21:16.278Z,969.78
2023-03-29T08:22:16.145Z,969.81
2023-03-29T08:23:16.414Z,969.80
2023-03-29T08:24:15.944Z,969.81
2023-03-29T08:25:16.199Z,969.81
2023-03-29T08:26:15.932Z,969.80
2023-03-29T08:27:16.020Z,969.81
2023-03-29T08:28:16.022Z,969.76
2023-03-29T08:29:15.940Z,969.79
2023-03-29T08:30:16.130Z,969.79
2023-03-29T08:31:15.931Z,969.78
2023-03-29T08:32:16.049Z,969.78
2023-03-29T08:33:16.070Z,969.81
2023-03-29T08:34:15.788Z,969.84
2023-03-29T08:35:16.082Z,969.85
2023-03-29T08:36:15.781Z,969.81
2023-03-29T08:37:15.906Z,969.83
2023-03-29T08:38:15.884Z,969.80
2023-03-29T08:39:16.843Z,969.73
2023-03-29T08:40:15.901Z,969.78
2023-03-29T08:41:15.754Z,969.77
2023-03-29T08:42:15.930Z,969.77
2023-03-29T08:43:15.752Z,969.73
2023-03-29T08:44:15.825Z,969.73
2023-03-29T08:45:15.696Z,969.74
2023-03-29T08:46:15.939Z,969.79
2023-03-29T08:47:15.708Z,969.76
2023-03-29T08:48:15.744Z,969.73
2023-03-29T08:49:15.737Z,969.72
2023-03-29T08:50:16.093Z,969.72
2023-03-29T08:51:16.313Z,969.74
2023-03-29T08:52:16.807Z,969.73
2023-03-29T08:53:16.466Z,969.69
2023-03-29T08:54:16.318Z,969.69
2023-03-29T08:55:15.748Z,969.68
2023-03-29T08:56:15.858Z,969.68
2023-03-29T08:57:15.991Z,969.65
2023-03-29T08:58:15.665Z,969.61
2023-03-29T08:59:15.519Z,969.65
2023-03-29T09:00:15.628Z,969.66
2023-03-29T09:01:15.800Z,969.66
2023-03-29T09:02:15.752Z,969.68
2023-03-29T09:03:15.528Z,969.66
2023-03-29T09:04:15.653Z,969.65
2023-03-29T09:05:15.447Z,969.65
2023-03-29T09:06:15.562Z,969.66
2023-03-29T09:07:15.434Z,969.65
2023-03-29T09:08:15.504Z,969.66
2023-03-29T09:09:15.598Z,969.63
2023-03-29T09:10:15.332Z,969.67
2023-03-29T09:11:15.516Z,969.65
2023-03-29T09:12:15.515Z,969.66
2023-03-29T09:13:15.763Z,969.66
2023-03-29T09:14:15.317Z,969.66
2023-03-29T09:15:15.514Z,969.64
2023-03-29T09:16:15.357Z,969.63
2023-03-29T09:17:15.448Z,969.67
2023-03-29T09:18:15.338Z,969.64
2023-03-29T09:19:15.365Z,969.60
2023-03-29T09:20:15.913Z,969.58
2023-03-29T09:21:15.488Z,969.60
2023-03-29T09:22:15.267Z,969.62
2023-03-29T09:23:15.396Z,969.59
2023-03-29T09:24:15.192Z,969.62
2023-03-29T09:25:15.467Z,969.64
2023-03-29T09:26:21.275Z,969.62
2023-03-29T09:27:15.308Z,969.55
2023-03-29T09:28:15.096Z,969.59
2023-03-29T09:29:15.443Z,969.52
2023-03-29T09:30:15.082Z,969.48
2023-03-29T09:31:15.443Z,969.47
2023-03-29T09:32:15.071Z,969.45
2023-03-29T09:33:15.372Z,969.42
2023-03-29T09:34:16.017Z,969.34
2023-03-29T09:35:15.935Z,969.35
2023-03-29T09:36:15.058Z,969.36
2023-03-29T09:37:15.347Z,969.35
2023-03-29T09:38:14.989Z,969.38
2023-03-29T09:39:15.155Z,969.37
2023-03-29T09:40:15.096Z,969.41
2023-03-29T09:41:14.979Z,969.37
2023-03-29T09:42:15.657Z,969.32
2023-03-29T09:43:14.931Z,969.30
2023-03-29T09:44:28.205Z,969.31
2023-03-29T09:45:14.900Z,969.31
2023-03-29T09:46:15.566Z,969.28
2023-03-29T09:47:14.900Z,969.23
2023-03-29T09:48:15.115Z,969.27
2023-03-29T09:49:17.166Z,969.26
2023-03-29T09:50:29.620Z,969.23
2023-03-29T09:51:14.866Z,969.27
2023-03-29T09:52:15.046Z,969.24
2023-03-29T09:53:14.818Z,969.27
2023-03-29T09:54:15.777Z,969.27
2023-03-29T09:55:15.480Z,969.18
2023-03-29T09:56:15.405Z,969.21
2023-03-29T09:57:15.114Z,969.19
2023-03-29T09:58:15.578Z,969.18
2023-03-29T09:59:14.729Z,969.19
2023-03-29T10:00:15.003Z,969.13
2023-03-29T10:01:14.750Z,969.15
2023-03-29T10:02:14.954Z,969.12
2023-03-29T10:03:15.387Z,969.12
2023-03-29T10:04:15.008Z,969.17
2023-03-29T10:05:14.643Z,969.11
2023-03-29T10:06:14.754Z,969.09
2023-03-29T10:07:14.640Z,969.10
2023-03-29T10:08:16.160Z,969.13
2023-03-29T10:09:14.630Z,969.11
2023-03-29T10:10:14.698Z,969.11
2023-03-29T10:11:14.806Z,969.09
2023-03-29T10:12:14.516Z,969.11
2023-03-29T10:13:14.735Z,969.08
2023-03-29T10:14:14.511Z,969.07
2023-03-29T10:15:26.793Z,969.22
2023-03-29T10:16:14.491Z,969.19
2023-03-29T10:17:14.613Z,969.14
2023-03-29T10:18:14.563Z,969.14
2023-03-29T10:19:14.606Z,969.18
2023-03-29T10:20:14.608Z,969.05
2023-03-29T10:21:14.567Z,969.03
2023-03-29T10:22:14.411Z,969.12
2023-03-29T10:23:14.601Z,969.26
2023-03-29T10:24:14.559Z,969.08
2023-03-29T10:25:14.745Z,969.05
2023-03-29T10:26:14.821Z,969.09
2023-03-29T10:27:14.508Z,969.10
2023-03-29T10:28:14.363Z,969.17
2023-03-29T10:29:14.511Z,969.20
2023-03-29T10:30:14.382Z,968.97
2023-03-29T10:31:16.064Z,969.04
2023-03-29T10:32:14.317Z,968.93
2023-03-29T10:33:14.443Z,969.03
2023-03-29T10:34:14.265Z,968.95
2023-03-29T10:35:14.396Z,968.84
2023-03-29T10:36:14.293Z,968.81
2023-03-29T10:37:14.461Z,968.88
2023-03-29T10:38:14.203Z,968.79
2023-03-29T10:39:14.488Z,968.90
2023-03-29T10:40:14.294Z,968.89
2023-03-29T10:41:14.521Z,968.84
2023-03-29T10:42:14.542Z,968.75
2023-03-29T10:43:14.824Z,968.82
2023-03-29T10:44:14.317Z,968.75
2023-03-29T10:45:14.108Z,968.76
2023-03-29T10:46:15.004Z,968.75
2023-03-29T10:47:14.358Z,968.76
2023-03-29T10:48:14.165Z,968.78
2023-03-29T10:49:14.400Z,968.64
2023-03-29T10:50:14.190Z,968.65
2023-03-29T10:51:14.205Z,968.68
2023-03-29T10:52:14.030Z,968.67
2023-03-29T10:53:14.177Z,968.65
2023-03-29T10:54:14.020Z,968.65
2023-03-29T10:55:14.217Z,968.63
2023-03-29T10:56:13.978Z,968.68
2023-03-29T10:57:14.278Z,968.64
2023-03-29T10:58:13.948Z,968.63
2023-03-29T10:59:14.230Z,968.71
2023-03-29T11:00:14.133Z,968.63
2023-03-29T11:01:15.002Z,968.66
2023-03-29T11:02:14.352Z,968.66
2023-03-29T11:03:16.650Z,968.60
2023-03-29T11:04:15.139Z,968.70
2023-03-29T11:05:13.947Z,968.67
2023-03-29T11:06:13.863Z,968.65
2023-03-29T11:07:14.085Z,968.69
2023-03-29T11:08:14.342Z,968.66
2023-03-29T11:09:14.884Z,968.68
2023-03-29T11:10:13.817Z,968.64
2023-03-29T11:11:13.994Z,968.66
2023-03-29T11:12:16.244Z,968.62
2023-03-29T11:13:13.898Z,968.59
2023-03-29T11:14:13.847Z,968.58
2023-03-29T11:15:14.012Z,968.59
2023-03-29T11:16:13.859Z,968.57
2023-03-29T11:17:13.849Z,968.55
2023-03-29T11:18:13.734Z,968.50
2023-03-29T11:19:13.712Z,968.54
2023-03-29T11:20:13.873Z,968.52
2023-03-29T11:21:13.678Z,968.51
2023-03-29T11:22:13.893Z,968.50
2023-03-29T11:23:13.653Z,968.49
2023-03-29T11:24:13.842Z,968.52
2023-03-29T11:25:13.634Z,968.49
2023-03-29T11:26:13.793Z,968.58
2023-03-29T11:27:13.708Z,968.61
2023-03-29T11:28:13.709Z,968.61
2023-03-29T11:29:13.540Z,968.61
2023-03-29T11:30:13.786Z,968.60
2023-03-29T11:31:13.522Z,968.63
2023-03-29T11:32:13.629Z,968.62
2023-03-29T11:33:13.502Z,968.64
2023-03-29T11:34:13.662Z,968.61
2023-03-29T11:35:13.531Z,968.66
2023-03-29T11:36:13.757Z,968.68
2023-03-29T11:37:13.442Z,968.69
2023-03-29T11:38:13.582Z,968.72
2023-03-29T11:39:13.561Z,968.67
2023-03-29T11:40:13.534Z,968.63
2023-03-29T11:41:13.638Z,968.66
2023-03-29T11:42:13.521Z,968.67
2023-03-29T11:43:13.461Z,968.68
2023-03-29T11:44:13.518Z,968.73
2023-03-29T11:45:13.560Z,968.69
2023-03-29T11:46:13.920Z,968.68
2023-03-29T11:47:13.751Z,968.68
2023-03-29T11:48:13.689Z,968.64
2023-03-29T11:49:13.675Z,968.67
2023-03-29T11:50:13.514Z,968.71
2023-03-29T11:51:14.208Z,968.71
2023-03-29T11:52:13.834Z,968.67
2023-03-29T11:53:14.671Z,968.70
2023-03-29T11:54:14.101Z,968.71
2023-03-29T11:55:13.870Z,968.71
2023-03-29T11:56:13.589Z,968.73
2023-03-29T11:57:13.510Z,968.71
2023-03-29T11:58:13.384Z,968.71
2023-03-29T11:59:13.801Z,968.71
2023-03-29T12:00:13.863Z,968.72
2023-03-29T12:01:13.475Z,968.68
2023-03-29T12:02:13.394Z,968.69
2023-03-29T12:03:13.806Z,968.66
2023-03-29T12:04:13.713Z,968.70
2023-03-29T12:05:13.808Z,968.70
2023-03-29T12:06:13.121Z,968.68
2023-03-29T12:07:13.161Z,968.64
2023-03-29T12:08:13.125Z,968.68
2023-03-29T12:09:16.243Z,968.64
2023-03-29T12:10:13.200Z,968.63
2023-03-29T12:11:13.010Z,968.57
2023-03-29T12:12:13.166Z,968.57
2023-03-29T12:13:13.093Z,968.55
2023-03-29T12:14:13.245Z,968.55
2023-03-29T12:15:13.083Z,968.53
2023-03-29T12:16:13.028Z,968.56
2023-03-29T12:17:13.114Z,968.57
2023-03-29T12:18:12.948Z,968.55
2023-03-29T12:19:13.014Z,968.59
2023-03-29T12:20:13.098Z,968.63
2023-03-29T12:21:12.976Z,968.62
2023-03-29T12:22:13.161Z,968.64
2023-03-29T12:23:12.908Z,968.64
2023-03-29T12:24:13.086Z,968.65
2023-03-29T12:25:12.823Z,968.63
2023-03-29T12:26:13.182Z,968.65
2023-03-29T12:27:12.789Z,968.69
2023-03-29T12:28:13.010Z,968.65